地図

経路データ

SID SEASON NUMBER BASIN SUBBASIN NAME ISO_TIME NATURE LAT LON WMO_WIND WMO_PRES WMO_AGENCY TRACK_TYPE DIST2LAND LANDFALL IFLAG USA_AGENCY USA_ATCF_ID USA_LAT USA_LON USA_RECORD USA_STATUS USA_WIND USA_PRES USA_SSHS USA_R34_NE USA_R34_SE USA_R34_SW USA_R34_NW USA_R50_NE USA_R50_SE USA_R50_SW USA_R50_NW USA_R64_NE USA_R64_SE USA_R64_SW USA_R64_NW USA_POCI USA_ROCI USA_RMW USA_EYE TOKYO_LAT TOKYO_LON TOKYO_GRADE TOKYO_WIND TOKYO_PRES TOKYO_R50_DIR TOKYO_R50_LONG TOKYO_R50_SHORT TOKYO_R30_DIR TOKYO_R30_LONG TOKYO_R30_SHORT TOKYO_LAND CMA_LAT CMA_LON CMA_CAT CMA_WIND CMA_PRES HKO_LAT HKO_LON HKO_CAT HKO_WIND HKO_PRES NEWDELHI_LAT NEWDELHI_LON NEWDELHI_GRADE NEWDELHI_WIND NEWDELHI_PRES NEWDELHI_CI NEWDELHI_DP NEWDELHI_POCI REUNION_LAT REUNION_LON REUNION_TYPE REUNION_WIND REUNION_PRES REUNION_TNUM REUNION_CI REUNION_RMW REUNION_R34_NE REUNION_R34_SE REUNION_R34_SW REUNION_R34_NW REUNION_R50_NE REUNION_R50_SE REUNION_R50_SW REUNION_R50_NW REUNION_R64_NE REUNION_R64_SE REUNION_R64_SW REUNION_R64_NW BOM_LAT BOM_LON BOM_TYPE BOM_WIND BOM_PRES BOM_TNUM BOM_CI BOM_RMW BOM_R34_NE BOM_R34_SE BOM_R34_SW BOM_R34_NW BOM_R50_NE BOM_R50_SE BOM_R50_SW BOM_R50_NW BOM_R64_NE BOM_R64_SE BOM_R64_SW BOM_R64_NW BOM_ROCI BOM_POCI BOM_EYE BOM_POS_METHOD BOM_PRES_METHOD NADI_LAT NADI_LON NADI_CAT NADI_WIND NADI_PRES WELLINGTON_LAT WELLINGTON_LON WELLINGTON_WIND WELLINGTON_PRES DS824_LAT DS824_LON DS824_STAGE DS824_WIND DS824_PRES TD9636_LAT TD9636_LON TD9636_STAGE TD9636_WIND TD9636_PRES TD9635_LAT TD9635_LON TD9635_WIND TD9635_PRES TD9635_ROCI NEUMANN_LAT NEUMANN_LON NEUMANN_CLASS NEUMANN_WIND NEUMANN_PRES MLC_LAT MLC_LON MLC_CLASS MLC_WIND MLC_PRES USA_GUST BOM_GUST BOM_GUST_PER REUNION_GUST REUNION_GUST_PER USA_SEAHGT USA_SEARAD_NE USA_SEARAD_SE USA_SEARAD_SW USA_SEARAD_NW STORM_SPEED STORM_DIR
1961254N19094 1961 92 NI BB NOT_NAMED 1961-09-10 18:00:00 TS 18.6000 93.7000 main 30 23 O________O____ jtwc_io IO121961 18.6000 93.7000 -1 18.6000 93.7000 TC 3 325
1961254N19094 1961 92 NI BB NOT_NAMED 1961-09-10 21:00:00 TS 18.7375 93.5950 main 30 23 P________P____ IO121961 18.7375 93.5950 -1 18.7375 93.5950 TC 4 328
1961254N19094 1961 92 NI BB NOT_NAMED 1961-09-11 00:00:00 TS 18.9000 93.5000 main 23 21 O________O____ jtwc_io IO121961 18.9000 93.5000 -1 18.9000 93.5000 TC 25 4 335
1961254N19094 1961 92 NI BB NOT_NAMED 1961-09-11 03:00:00 TS 19.1000 93.4133 main 30 23 P________PO___ IO121961 19.1000 93.4150 -1 19.1000 93.4150 TC 25 19.1000 93.4000 1 4 333
1961254N19094 1961 92 NI BB NOT_NAMED 1961-09-11 06:00:00 TS 19.2913 93.2875 main 31 31 O________OP___ jtwc_io IO121961 19.3000 93.3000 -1 19.3000 93.3000 TC 25 19.2565 93.2376 1 5 319
1961254N19094 1961 92 NI BB NOT_NAMED 1961-09-11 09:00:00 TS 19.4419 93.1027 main 53 53 P________PP___ IO121961 19.4500 93.1150 -1 19.4500 93.1150 TC 25 19.4203 93.0701 1 5 310
1961254N19094 1961 92 NI BB NOT_NAMED 1961-09-11 12:00:00 TS 19.5997 92.8975 main 55 39 O________OP___ jtwc_io IO121961 19.6000 92.9000 -1 19.6000 92.9000 TC 25 19.5990 92.8925 1 5 313
1961254N19094 1961 92 NI BB NOT_NAMED 1961-09-11 15:00:00 TS 19.7900 92.7049 main 39 38 P________PO___ IO121961 19.7850 92.7074 -1 19.7850 92.7074 TC 25 19.8000 92.7000 1 6 317
1961254N19094 1961 92 NI BB NOT_NAMED 1961-09-11 18:00:00 TS 20.0088 92.4954 main 38 33 O________OP___ jtwc_io IO121961 20.0000 92.5000 -1 20.0000 92.5000 TC 25 20.0265 92.4862 1 6 318
1961254N19094 1961 92 NI BB NOT_NAMED 1961-09-11 21:00:00 TS 20.2547 92.2666 main 38 38 P________PP___ IO121961 20.2499 92.2799 -1 20.2499 92.2799 TC 30 20.2644 92.2400 1 7 315
1961254N19094 1961 92 NI BB NOT_NAMED 1961-09-12 00:00:00 TS 20.4984 91.9829 main 47 47 O________OP___ jtwc_io IO121961 20.5000 92.0000 -1 20.5000 92.0000 TC 35 20.4951 91.9487 1 8 307
1961254N19094 1961 92 NI BB NOT_NAMED 1961-09-12 03:00:00 TS 20.7150 91.6250 main 76 76 P________PO___ IO121961 20.7224 91.6375 -1 20.7224 91.6375 TC 35 20.7000 91.6000 2 8 298
1961254N19094 1961 92 NI BB NOT_NAMED 1961-09-12 06:00:00 TS 20.8875 91.1901 main 98 98 O________OP___ jtwc_io IO121961 20.9000 91.2000 -1 20.9000 91.2000 TC 35 20.8624 91.1703 2 9 289
1961254N19094 1961 92 NI BB NOT_NAMED 1961-09-12 09:00:00 TS 21.0086 90.7007 main 103 78 P________PP___ IO121961 21.0150 90.7074 -1 21.0150 90.7074 TC 35 20.9957 90.6874 2 10 283
1961254N19094 1961 92 NI BB NOT_NAMED 1961-09-12 12:00:00 TS 21.1020 90.1953 main 78 63 O________OP___ jtwc_io IO121961 21.1000 90.2000 -1 21.1000 90.2000 TC 35 21.1061 90.1859 2 9 282
1961254N19094 1961 92 NI BB NOT_NAMED 1961-09-12 15:00:00 TS 21.2049 89.7233 main 63 39 P________PO___ IO121961 21.2074 89.7350 -1 21.2074 89.7350 TC 35 21.2000 89.7000 3 9 283
1961254N19094 1961 92 NI BB NOT_NAMED 1961-09-12 18:00:00 TS 21.2961 89.3021 main 39 22 O________OP___ jtwc_io IO121961 21.3000 89.3000 -1 21.3000 89.3000 TC 35 21.2883 89.3064 3 8 281
1961254N19094 1961 92 NI BB NOT_NAMED 1961-09-12 21:00:00 TS 21.3543 88.9096 main 22 22 P________PP___ IO121961 21.3498 88.8998 -1 21.3498 88.8998 TC 30 21.3634 88.9293 3 7 279
1961254N19094 1961 92 NI BB NOT_NAMED 1961-09-13 00:00:00 TS 21.4106 88.5125 main 22 11 O________OP___ jtwc_io IO121961 21.4000 88.5000 -1 21.4000 88.5000 TC 25 21.4319 88.5376 3 8 281
1961254N19094 1961 92 NI BB NOT_NAMED 1961-09-13 03:00:00 TS 21.4998 88.0867 main 15 11 P________PO___ IO121961 21.4997 88.0800 -1 21.4997 88.0800 TC 25 21.5000 88.1000 1 9 282
1961254N19094 1961 92 NI BB NOT_NAMED 1961-09-13 06:00:00 TS 21.5929 87.5972 main 11 0 O________OP___ jtwc_io IO121961 21.6000 87.6000 -1 21.6000 87.6000 TC 25 21.5788 87.5915 1 10 279
1961254N19094 1961 92 NI BB NOT_NAMED 1961-09-13 09:00:00 TS 21.6523 87.0307 main 0 0 P________PP___ IO121961 21.6499 87.0298 -1 21.6499 87.0298 TC 25 21.6570 87.0324 1 11 276
1961254N19094 1961 92 NI BB NOT_NAMED 1961-09-13 12:00:00 TS 21.7106 86.4107 main 0 0 O________OP___ jtwc_io IO121961 21.7000 86.4000 -1 21.7000 86.4000 TC 25 21.7317 86.4321 1 12 277
1961254N19094 1961 92 NI BB NOT_NAMED 1961-09-13 15:00:00 TS 21.7998 85.7767 main 0 0 P________PO___ IO121961 21.7997 85.7651 -1 21.7997 85.7651 TC 25 21.8000 85.8000 1 12 278
1961254N19094 1961 92 NI BB NOT_NAMED 1961-09-13 18:00:00 TS 21.8860 85.1044 main 0 0 O________OP___ jtwc_io IO121961 21.9000 85.1000 -1 21.9000 85.1000 TC 25 21.8579 85.1131 1 13 277
1961254N19094 1961 92 NI BB NOT_NAMED 1961-09-13 21:00:00 TS 21.9463 84.3916 main 0 0 P________PP___ IO121961 21.9651 84.3850 -1 21.9651 84.3850 TC 25 21.9087 84.4049 1 13 274
1961254N19094 1961 92 NI BB NOT_NAMED 1961-09-14 00:00:00 TS 21.9850 83.7064 main 0 0 O________OP___ jtwc_io IO121961 22.0000 83.7000 -1 22.0000 83.7000 TC 25 21.9549 83.7193 1 12 273
1961254N19094 1961 92 NI BB NOT_NAMED 1961-09-14 03:00:00 TS 21.9998 83.1032 main 0 0 P________PO___ IO121961 21.9998 83.1048 -1 21.9998 83.1048 TC 25 22.0000 83.1000 1 10 272
1961254N19094 1961 92 NI BB NOT_NAMED 1961-09-14 06:00:00 TS 22.0135 82.5996 main 0 0 O________OP___ jtwc_io IO121961 22.0000 82.6000 -1 22.0000 82.6000 TC 25 22.0405 82.5988 1 9 273
1961254N19094 1961 92 NI BB NOT_NAMED 1961-09-14 09:00:00 TS 22.0509 82.1740 main 0 0 P________PP___ IO121961 22.0347 82.1775 -1 22.0347 82.1775 TC 25 22.0833 82.1671 1 8 277
1961254N19094 1961 92 NI BB NOT_NAMED 1961-09-14 12:00:00 TS 22.1115 81.7923 main 0 0 O________OP___ jtwc_io IO121961 22.1000 81.8000 -1 22.1000 81.8000 TC 25 22.1345 81.7769 1 7 281
1961254N19094 1961 92 NI BB NOT_NAMED 1961-09-14 15:00:00 TS 22.1949 81.4050 main 0 0 P________PO___ IO121961 22.1923 81.4075 -1 22.1923 81.4075 TC 25 22.2000 81.4000 1 8 284
1961254N19094 1961 92 NI BB NOT_NAMED 1961-09-14 18:00:00 TS 22.2980 80.9801 main 0 0 O________OP___ jtwc_io IO121961 22.3000 81.0000 -1 22.3000 81.0000 TC 25 22.2940 80.9404 1 8 284
1961254N19094 1961 92 NI BB NOT_NAMED 1961-09-14 21:00:00 TS 22.4053 80.5169 main 0 0 P________PP___ IO121961 22.4076 80.5276 -1 22.4076 80.5276 TC 25 22.4005 80.4956 1 8 284
1961254N19094 1961 92 NI BB NOT_NAMED 1961-09-15 00:00:00 TS 22.5022 80.1010 main 0 0 O________OP___ jtwc_io IO121961 22.5000 80.1000 -1 22.5000 80.1000 TC 25 22.5066 80.1029 1 7 284
1961254N19094 1961 92 NI BB NOT_NAMED 1961-09-15 03:00:00 TS 22.5716 79.7933 main 0 0 P________PO___ IO121961 22.5574 79.7899 -1 22.5574 79.7899 TC 25 22.6000 79.8000 1 5 285
1961254N19094 1961 92 NI BB NOT_NAMED 1961-09-15 06:00:00 TS 22.6213 79.6091 main 0 0 O________OP___ jtwc_io IO121961 22.6000 79.6000 -1 22.6000 79.6000 TC 25 22.6638 79.6272 1 3 292
1961254N19094 1961 92 NI BB NOT_NAMED 1961-09-15 09:00:00 TS 22.6714 79.5282 main 0 0 P________PP___ IO121961 22.6499 79.5200 -1 22.6499 79.5200 TC 25 22.7143 79.5446 1 1 316
1961254N19094 1961 92 NI BB NOT_NAMED 1961-09-15 12:00:00 TS 22.7192 79.5049 main 0 0 O________OP___ jtwc_io IO121961 22.7000 79.5000 -1 22.7000 79.5000 TC 25 22.7577 79.5148 1 1 328
1961254N19094 1961 92 NI BB NOT_NAMED 1961-09-15 15:00:00 TS 22.7667 79.4617 main 0 0 P________PO___ IO121961 22.7500 79.4425 -1 22.7500 79.4425 TC 25 22.8000 79.5000 1 1 320
1961254N19094 1961 92 NI BB NOT_NAMED 1961-09-15 18:00:00 TS 22.8153 79.4156 main 0 0 O________OP___ jtwc_io IO121961 22.8000 79.4000 -1 22.8000 79.4000 TC 25 22.8459 79.4468 1 1 332
1961254N19094 1961 92 NI BB NOT_NAMED 1961-09-15 21:00:00 TS 22.8591 79.4050 main 0 0 P________PP___ IO121961 22.8425 79.4075 -1 22.8425 79.4075 TC 25 22.8925 79.3999 1 1 341
1961254N19094 1961 92 NI BB NOT_NAMED 1961-09-16 00:00:00 TS 22.9143 79.3844 main 0 0 O________OP___ jtwc_io IO121961 22.9000 79.4000 -1 22.9000 79.4000 TC 25 22.9428 79.3531 1 2 327
1961254N19094 1961 92 NI BB NOT_NAMED 1961-09-16 03:00:00 TS 23.0000 79.3050 main 0 0 P________PO___ IO121961 23.0000 79.3075 -1 23.0000 79.3075 TC 25 23.0000 79.3000 1 2 316
1961254N19094 1961 92 NI BB NOT_NAMED 1961-09-16 06:00:00 TS 23.0716 79.2160 main 0 0 O________OP___ jtwc_io IO121961 23.1000 79.2000 -1 23.1000 79.2000 TC 25 23.0149 79.2480 1 2 310
1961254N19094 1961 92 NI BB NOT_NAMED 1961-09-16 09:00:00 TS 23.1100 79.1622 main 0 0 P________PP___ IO121961 23.1425 79.1499 -1 23.1425 79.1499 TC 25 23.0449 79.1867 1 1 315
1961254N19094 1961 92 NI BB NOT_NAMED 1961-09-16 12:00:00 TS 23.1758 79.1024 main 0 0 O________OP___ jtwc_io IO121961 23.2000 79.1000 -1 23.2000 79.1000 TC 25 23.1274 79.1071 1 2 324
1961254N19094 1961 92 NI BB NOT_NAMED 1961-09-16 15:00:00 TS 23.2933 79.0149 main 0 0 P________PO___ IO121961 23.2900 79.0223 -1 23.2900 79.0223 TC 25 23.3000 79.0000 1 4 331
1961254N19094 1961 92 NI BB NOT_NAMED 1961-09-16 18:00:00 TS 23.5354 78.8835 main 0 0 O________OP___ jtwc_io IO121961 23.5000 78.9000 -1 23.5000 78.9000 TC 25 23.5886 78.8589 1 7 336
1961254N19094 1961 92 NI BB NOT_NAMED 1961-09-16 21:00:00 TS 23.9284 78.7057 main 0 0 P________PP___ IO121961 23.8951 78.7180 -1 23.8951 78.7180 TC 25 23.9728 78.6893 1 9 338
1961254N19094 1961 92 NI BB NOT_NAMED 1961-09-17 00:00:00 TS 24.4103 78.5000 main 0 0 O________OP___ jtwc_io IO121961 24.4000 78.5000 -1 24.4000 78.5000 TC 25 24.4206 78.5000 1 10 339
1961254N19094 1961 92 NI BB NOT_NAMED 1961-09-17 03:00:00 NR 24.9000 78.3000 main 0 __________O___ IO121961 -1 TC 24.9000 78.3000 1 10 340

IBTrACS Databaseについて

本データベースは、米国NOAAが公開する1842年以降の世界の熱帯低気圧のベストトラックデータアーカイブInternational Best Track Archive for Climate Stewardship (IBTrACS)を、ウェブで閲覧しやすい形式に変換したものです。

最終更新日:2021-12-03